createdAt,value
2019-03-25T00:00:46.567Z,19.50
2019-03-25T00:03:18.830Z,17.80
2019-03-25T00:05:49.467Z,18.12
2019-03-25T00:08:20.153Z,17.23
2019-03-25T00:10:50.794Z,16.25
2019-03-25T00:13:21.436Z,16.32
2019-03-25T00:15:52.125Z,16.20
2019-03-25T00:18:22.736Z,16.30
2019-03-25T00:20:53.788Z,15.80
2019-03-25T00:23:25.495Z,17.27
2019-03-25T00:25:56.175Z,17.00
2019-03-25T00:28:26.807Z,14.83
2019-03-25T00:30:57.468Z,13.50
2019-03-25T00:33:28.098Z,14.25
2019-03-25T00:35:59.026Z,13.72
2019-03-25T00:38:29.686Z,14.20
2019-03-25T00:41:00.371Z,14.63
2019-03-25T00:43:31.271Z,14.38
2019-03-25T00:46:02.179Z,14.07
2019-03-25T00:48:33.150Z,13.62
2019-03-25T00:51:03.822Z,13.40
2019-03-25T00:53:34.818Z,11.97
2019-03-25T00:56:05.496Z,13.43
2019-03-25T00:58:36.144Z,13.43
2019-03-25T01:01:06.991Z,13.10
2019-03-25T01:03:37.650Z,12.85
2019-03-25T01:06:08.568Z,11.93
2019-03-25T01:08:39.268Z,12.53
2019-03-25T01:11:09.962Z,12.05
2019-03-25T01:13:40.597Z,12.45
2019-03-25T01:16:11.252Z,11.33
2019-03-25T01:18:41.880Z,12.73
2019-03-25T01:21:12.538Z,12.50
2019-03-25T01:23:43.174Z,12.68
2019-03-25T01:26:13.864Z,12.53
2019-03-25T01:28:44.490Z,13.50
2019-03-25T01:31:15.179Z,12.47
2019-03-25T01:33:46.781Z,11.83
2019-03-25T01:36:18.384Z,12.25
2019-03-25T01:38:49.013Z,11.28
2019-03-25T01:41:19.700Z,11.45
2019-03-25T01:43:50.427Z,11.48
2019-03-25T01:46:21.084Z,11.70
2019-03-25T01:48:52.981Z,10.10
2019-03-25T01:51:23.927Z,10.68
2019-03-25T01:53:54.795Z,10.88
2019-03-25T01:56:25.460Z,12.88
2019-03-25T01:58:56.085Z,11.90
2019-03-25T02:01:28.412Z,11.43
2019-03-25T02:03:59.014Z,11.68
2019-03-25T02:06:29.953Z,11.10
2019-03-25T02:09:00.607Z,11.55
2019-03-25T02:11:32.466Z,11.43
2019-03-25T02:14:03.112Z,11.93
2019-03-25T02:16:35.710Z,12.18
2019-03-25T02:19:06.094Z,11.22
2019-03-25T02:21:37.066Z,11.05
2019-03-25T02:24:08.665Z,10.45
2019-03-25T02:26:41.106Z,10.90
2019-03-25T02:29:11.755Z,10.93
2019-03-25T02:31:42.725Z,10.45
2019-03-25T02:34:13.361Z,9.48
2019-03-25T02:36:44.017Z,10.13
2019-03-25T02:39:14.662Z,10.40
2019-03-25T02:41:45.356Z,10.00
2019-03-25T02:44:15.982Z,9.47
2019-03-25T02:46:46.618Z,10.50
2019-03-25T02:49:17.812Z,9.43
2019-03-25T02:51:48.790Z,10.53
2019-03-25T02:54:19.778Z,10.82
2019-03-25T02:56:50.451Z,9.98
2019-03-25T02:59:21.135Z,9.48
2019-03-25T03:01:52.758Z,9.40
2019-03-25T03:04:23.593Z,10.70
2019-03-25T03:06:54.238Z,9.60
2019-03-25T03:09:25.111Z,9.30
2019-03-25T03:11:55.755Z,9.30
2019-03-25T03:14:26.379Z,9.43
2019-03-25T03:16:57.053Z,8.75
2019-03-25T03:19:27.698Z,8.75
2019-03-25T03:21:58.621Z,8.38
2019-03-25T03:24:29.240Z,9.47
2019-03-25T03:26:59.929Z,8.05
2019-03-25T03:29:30.569Z,8.43
2019-03-25T03:32:01.259Z,8.33
2019-03-25T03:34:31.858Z,8.23
2019-03-25T03:37:03.468Z,8.48
2019-03-25T03:39:34.120Z,8.08
2019-03-25T03:42:04.985Z,7.53
2019-03-25T03:44:35.600Z,8.57
2019-03-25T03:47:06.274Z,7.97
2019-03-25T03:49:37.893Z,8.33
2019-03-25T03:52:08.548Z,8.33
2019-03-25T03:54:40.644Z,8.15
2019-03-25T03:57:11.580Z,7.87
2019-03-25T03:59:43.104Z,7.30
2019-03-25T04:02:13.767Z,7.42
2019-03-25T04:04:44.413Z,7.58
2019-03-25T04:07:15.072Z,7.58
2019-03-25T04:09:45.715Z,7.67
2019-03-25T04:12:16.781Z,7.25
2019-03-25T04:14:47.602Z,6.75
2019-03-25T04:17:18.262Z,6.97
2019-03-25T04:19:48.952Z,6.85
2019-03-25T04:22:19.882Z,6.85
2019-03-25T04:24:50.514Z,7.20
2019-03-25T04:27:23.711Z,7.30
2019-03-25T04:29:54.614Z,6.97
2019-03-25T04:32:25.268Z,6.67
2019-03-25T04:34:56.708Z,6.78
2019-03-25T04:37:27.380Z,6.55
2019-03-25T04:39:58.057Z,6.90
2019-03-25T04:42:29.000Z,6.70
2019-03-25T04:44:59.631Z,6.28
2019-03-25T04:47:30.293Z,6.45
2019-03-25T04:50:01.255Z,7.00
2019-03-25T04:52:31.906Z,6.80
2019-03-25T04:55:02.538Z,6.28
2019-03-25T04:57:33.917Z,6.42
2019-03-25T05:00:06.029Z,6.80
2019-03-25T05:02:36.683Z,6.28
2019-03-25T05:05:08.714Z,6.00
2019-03-25T05:07:39.411Z,6.78
2019-03-25T05:10:10.469Z,5.95
2019-03-25T05:12:41.405Z,5.80
2019-03-25T05:15:12.301Z,6.17
2019-03-25T05:17:43.215Z,5.92
2019-03-25T05:20:13.930Z,5.95
2019-03-25T05:22:44.548Z,6.62
2019-03-25T05:25:15.185Z,6.33
2019-03-25T05:27:46.804Z,6.37
2019-03-25T05:30:17.450Z,6.08
2019-03-25T05:32:48.108Z,5.85
2019-03-25T05:35:18.775Z,6.00
2019-03-25T05:37:49.463Z,5.90
2019-03-25T05:40:20.147Z,7.08
2019-03-25T05:42:51.825Z,6.53
2019-03-25T05:45:22.464Z,6.70
2019-03-25T05:47:53.111Z,6.72
2019-03-25T05:50:23.734Z,6.22
2019-03-25T05:52:54.712Z,6.37
2019-03-25T05:55:25.944Z,6.17
2019-03-25T05:57:56.945Z,6.62
2019-03-25T06:00:30.706Z,6.30
2019-03-25T06:03:02.013Z,6.53
2019-03-25T06:05:32.630Z,6.45
2019-03-25T06:08:03.553Z,6.87
2019-03-25T06:10:37.396Z,6.58
2019-03-25T06:13:10.443Z,7.03
2019-03-25T06:15:41.072Z,6.58
2019-03-25T06:18:11.732Z,6.53
2019-03-25T06:20:42.365Z,6.30
2019-03-25T06:23:13.013Z,6.50
2019-03-25T06:25:43.909Z,6.25
2019-03-25T06:28:15.535Z,5.85
2019-03-25T06:30:46.407Z,6.12
2019-03-25T06:33:17.071Z,6.22
2019-03-25T06:35:47.725Z,5.37
2019-03-25T06:38:18.365Z,5.72
2019-03-25T06:40:49.566Z,5.87
2019-03-25T06:43:20.224Z,5.42
2019-03-25T06:45:50.840Z,5.60
2019-03-25T06:48:21.798Z,5.22
2019-03-25T06:50:53.408Z,5.40
2019-03-25T06:53:24.885Z,5.92
2019-03-25T06:55:55.511Z,5.75
2019-03-25T06:58:26.423Z,6.00
2019-03-25T07:00:57.059Z,6.40
2019-03-25T07:03:29.808Z,5.83
2019-03-25T07:06:00.082Z,5.40
2019-03-25T07:08:30.734Z,5.87
2019-03-25T07:11:01.363Z,5.85
2019-03-25T07:13:32.653Z,5.80
2019-03-25T07:16:03.280Z,5.90
2019-03-25T07:18:34.212Z,6.10
2019-03-25T07:21:04.817Z,5.35
2019-03-25T07:23:35.478Z,6.20
2019-03-25T07:26:06.111Z,5.55
2019-03-25T07:28:38.632Z,5.90
2019-03-25T07:31:09.141Z,6.08
2019-03-25T07:33:39.820Z,5.47
2019-03-25T07:36:10.435Z,6.30
2019-03-25T07:38:41.107Z,6.20
2019-03-25T07:41:11.755Z,5.97
2019-03-25T07:43:42.434Z,5.97
2019-03-25T07:46:13.065Z,6.15
2019-03-25T07:48:43.744Z,6.08
2019-03-25T07:51:14.391Z,6.58
2019-03-25T07:53:45.050Z,6.80
2019-03-25T07:56:15.715Z,7.20
2019-03-25T07:58:46.406Z,7.90
2019-03-25T08:01:17.124Z,6.78
2019-03-25T08:03:48.023Z,7.60
2019-03-25T08:06:18.633Z,7.20
2019-03-25T08:08:49.312Z,7.67
2019-03-25T08:11:19.913Z,7.72
2019-03-25T08:13:50.601Z,7.70
2019-03-25T08:16:21.682Z,8.25
2019-03-25T08:18:52.695Z,8.23
2019-03-25T08:21:25.100Z,9.05
2019-03-25T08:23:56.715Z,9.10
2019-03-25T08:26:27.329Z,8.83
2019-03-25T08:28:58.963Z,8.70
2019-03-25T08:31:29.952Z,8.28
2019-03-25T08:34:00.625Z,8.80
2019-03-25T08:36:31.275Z,8.45
2019-03-25T08:39:02.005Z,8.08
2019-03-25T08:41:34.303Z,8.38
2019-03-25T08:44:04.984Z,7.95
2019-03-25T08:46:35.848Z,6.85
2019-03-25T08:49:06.526Z,7.33
2019-03-25T08:51:37.169Z,7.85
2019-03-25T08:54:07.810Z,7.35
2019-03-25T08:56:38.444Z,7.60
2019-03-25T08:59:09.097Z,8.00
2019-03-25T09:01:39.740Z,7.90
2019-03-25T09:04:10.393Z,7.35
2019-03-25T09:06:41.282Z,8.05
2019-03-25T09:09:11.919Z,7.42
2019-03-25T09:11:42.829Z,6.87
2019-03-25T09:14:13.490Z,7.05
2019-03-25T09:16:44.383Z,6.70
2019-03-25T09:19:15.338Z,7.10
2019-03-25T09:21:46.218Z,7.30
2019-03-25T09:24:16.984Z,6.72
2019-03-25T09:26:47.626Z,6.50
2019-03-25T09:29:18.331Z,5.45
2019-03-25T09:31:48.963Z,5.72
2019-03-25T09:34:19.753Z,5.60
2019-03-25T09:36:50.375Z,5.10
2019-03-25T09:39:21.301Z,4.55
2019-03-25T09:41:53.563Z,4.20
2019-03-25T09:44:24.266Z,3.95
2019-03-25T09:46:54.898Z,3.30
2019-03-25T09:49:26.799Z,3.60
2019-03-25T09:51:57.452Z,3.75
2019-03-25T09:54:28.372Z,3.55
2019-03-25T09:56:59.059Z,3.62
2019-03-25T09:59:29.762Z,3.65
2019-03-25T10:02:00.408Z,3.75
2019-03-25T10:04:31.060Z,4.08
2019-03-25T10:07:03.376Z,3.62
2019-03-25T10:09:33.943Z,4.10
2019-03-25T10:12:04.788Z,3.60
2019-03-25T10:14:35.609Z,3.45
2019-03-25T10:17:06.244Z,3.37
2019-03-25T10:19:36.902Z,3.33
2019-03-25T10:22:07.528Z,3.00
2019-03-25T10:24:38.259Z,3.67
2019-03-25T10:27:09.123Z,3.55
2019-03-25T10:29:39.808Z,2.72
2019-03-25T10:32:10.442Z,2.95
2019-03-25T10:34:41.164Z,2.80
2019-03-25T10:37:11.856Z,2.95
2019-03-25T10:39:42.490Z,2.70
2019-03-25T10:42:13.172Z,2.60
2019-03-25T10:44:43.831Z,2.25
2019-03-25T10:47:15.324Z,2.27
2019-03-25T10:49:45.973Z,2.17
2019-03-25T10:52:16.625Z,2.10
2019-03-25T10:54:47.348Z,2.00
2019-03-25T10:57:18.060Z,2.30
2019-03-25T10:59:48.720Z,2.22
2019-03-25T11:02:19.359Z,2.00
2019-03-25T11:04:50.352Z,2.30
2019-03-25T11:07:21.511Z,2.22
2019-03-25T11:09:52.104Z,2.22
2019-03-25T11:12:22.775Z,2.17
2019-03-25T11:14:53.799Z,2.00
2019-03-25T11:17:24.746Z,2.20
2019-03-25T11:19:55.419Z,1.87
2019-03-25T11:22:26.050Z,1.90
2019-03-25T11:24:56.723Z,2.35
2019-03-25T11:27:27.346Z,2.20
2019-03-25T11:29:58.016Z,2.00
2019-03-25T11:32:28.655Z,1.80
2019-03-25T11:34:59.312Z,1.98
2019-03-25T11:37:29.953Z,2.20
2019-03-25T11:40:00.997Z,2.00
2019-03-25T11:42:31.627Z,1.90
2019-03-25T11:45:02.284Z,2.52
2019-03-25T11:47:32.895Z,1.70
2019-03-25T11:50:03.814Z,2.58
2019-03-25T11:52:34.464Z,2.27
2019-03-25T11:55:05.463Z,2.00
2019-03-25T11:57:36.087Z,2.10
2019-03-25T12:00:08.542Z,1.90
2019-03-25T12:02:39.236Z,1.57
2019-03-25T12:05:10.104Z,1.60
2019-03-25T12:07:40.746Z,1.80
2019-03-25T12:10:11.986Z,1.65
2019-03-25T12:12:42.611Z,1.80
2019-03-25T12:15:13.499Z,1.90
2019-03-25T12:17:44.471Z,1.57
2019-03-25T12:20:15.331Z,1.80
2019-03-25T12:22:45.978Z,1.65
2019-03-25T12:25:16.652Z,1.70
2019-03-25T12:27:47.268Z,1.85
2019-03-25T12:30:17.952Z,1.80
2019-03-25T12:32:48.597Z,1.67
2019-03-25T12:35:19.504Z,1.70
2019-03-25T12:37:50.152Z,1.75
2019-03-25T12:40:20.810Z,1.70
2019-03-25T12:42:51.446Z,1.65
2019-03-25T12:45:22.258Z,1.62
2019-03-25T12:47:52.891Z,1.60
2019-03-25T12:50:24.564Z,1.90
2019-03-25T12:52:56.734Z,1.70
2019-03-25T12:55:28.181Z,1.77
2019-03-25T12:57:59.365Z,1.65
2019-03-25T13:00:43.182Z,1.60
2019-03-25T13:03:14.242Z,1.50
2019-03-25T13:05:44.907Z,1.45
2019-03-25T13:08:15.698Z,1.50
2019-03-25T13:10:47.342Z,1.45
2019-03-25T13:13:18.296Z,1.45
2019-03-25T13:15:49.351Z,1.80
2019-03-25T13:18:20.064Z,1.67
2019-03-25T13:20:50.723Z,1.40
2019-03-25T13:23:21.354Z,1.40
2019-03-25T13:25:52.000Z,1.55
2019-03-25T13:28:22.638Z,1.70
2019-03-25T13:30:53.539Z,1.50
2019-03-25T13:33:24.582Z,1.77
2019-03-25T13:35:55.222Z,2.00
2019-03-25T13:38:25.874Z,1.90
2019-03-25T13:40:56.778Z,1.82
2019-03-25T13:43:27.895Z,1.80
2019-03-25T13:46:05.308Z,1.47
2019-03-25T13:48:30.908Z,1.70
2019-03-25T13:51:01.540Z,1.75
2019-03-25T13:53:33.496Z,2.00
2019-03-25T13:56:04.131Z,1.95
2019-03-25T13:58:34.772Z,1.60
2019-03-25T14:01:05.518Z,1.32
2019-03-25T14:03:36.440Z,1.00
2019-03-25T14:06:07.555Z,0.90
2019-03-25T14:08:38.195Z,0.45
2019-03-25T14:11:08.887Z,0.88
2019-03-25T14:13:48.707Z,0.55
2019-03-25T14:16:11.949Z,0.40
2019-03-25T14:18:42.586Z,0.80
2019-03-25T14:21:13.246Z,1.02
2019-03-25T14:23:43.872Z,0.70
2019-03-25T14:26:14.548Z,0.60
2019-03-25T14:28:45.179Z,0.40
2019-03-25T14:31:15.854Z,0.33
2019-03-25T14:33:46.509Z,0.80
2019-03-25T14:36:17.166Z,0.75
2019-03-25T14:38:47.786Z,1.50
2019-03-25T14:41:18.677Z,0.98
2019-03-25T14:43:49.567Z,1.05
2019-03-25T14:46:21.222Z,1.40
2019-03-25T14:48:51.855Z,1.72
2019-03-25T14:51:22.490Z,1.20
2019-03-25T14:53:53.102Z,1.40
2019-03-25T14:56:23.750Z,1.10
2019-03-25T14:58:54.386Z,1.40
2019-03-25T15:01:25.187Z,1.12
2019-03-25T15:03:55.836Z,1.20
2019-03-25T15:06:26.476Z,1.00
2019-03-25T15:08:57.109Z,1.40
2019-03-25T15:11:28.153Z,1.30
2019-03-25T15:13:59.158Z,1.22
2019-03-25T15:16:30.036Z,1.20
2019-03-25T15:19:01.032Z,1.10
2019-03-25T15:21:31.810Z,1.30
2019-03-25T15:24:02.442Z,1.40
2019-03-25T15:26:33.147Z,1.45
2019-03-25T15:29:03.768Z,1.40
2019-03-25T15:31:34.475Z,1.40
2019-03-25T15:34:05.393Z,1.52
2019-03-25T15:36:36.669Z,1.30
2019-03-25T15:39:09.280Z,1.40
2019-03-25T15:41:39.926Z,1.47
2019-03-25T15:44:10.559Z,1.27
2019-03-25T15:46:41.292Z,1.30
2019-03-25T15:49:12.005Z,1.20
2019-03-25T15:51:43.866Z,1.30
2019-03-25T15:54:14.607Z,1.50
2019-03-25T15:56:45.252Z,1.20
2019-03-25T15:59:15.897Z,1.30
2019-03-25T16:01:46.903Z,1.30
2019-03-25T16:04:17.911Z,1.50
2019-03-25T16:06:48.603Z,1.37
2019-03-25T16:09:19.676Z,1.32
2019-03-25T16:11:50.311Z,1.40
2019-03-25T16:14:20.938Z,1.60
2019-03-25T16:16:51.855Z,1.50
2019-03-25T16:19:22.518Z,1.80
2019-03-25T16:21:53.159Z,1.87
2019-03-25T16:24:23.807Z,1.60
2019-03-25T16:26:54.463Z,1.95
2019-03-25T16:29:25.157Z,1.92
2019-03-25T16:31:55.830Z,2.85
2019-03-25T16:34:26.851Z,2.25
2019-03-25T16:36:57.519Z,2.27
2019-03-25T16:39:28.225Z,2.00
2019-03-25T16:41:58.916Z,2.00
2019-03-25T16:44:29.541Z,2.52
2019-03-25T16:47:00.630Z,2.00
2019-03-25T16:49:31.330Z,2.40
2019-03-25T16:52:01.976Z,2.27
2019-03-25T16:54:32.692Z,2.70
2019-03-25T16:57:03.356Z,2.33
2019-03-25T16:59:34.320Z,2.15
2019-03-25T17:04:31.591Z,2.00
2019-03-25T17:07:02.237Z,1.82
2019-03-25T17:09:33.269Z,2.12
2019-03-25T17:12:03.905Z,1.90
2019-03-25T17:14:34.750Z,2.20
2019-03-25T17:17:06.725Z,1.90
2019-03-25T17:19:37.469Z,2.10
2019-03-25T17:22:08.114Z,1.82
2019-03-25T17:24:39.182Z,1.82
2019-03-25T17:27:10.065Z,1.65
2019-03-25T17:29:40.726Z,1.87
2019-03-25T17:32:11.663Z,2.00
2019-03-25T17:34:42.555Z,2.05
2019-03-25T17:37:13.219Z,1.90
2019-03-25T17:39:44.140Z,2.10
2019-03-25T17:42:14.808Z,3.58
2019-03-25T17:44:46.059Z,2.20
2019-03-25T17:47:16.725Z,3.20
2019-03-25T17:49:47.369Z,2.50
2019-03-25T17:52:18.046Z,2.40
2019-03-25T17:54:48.676Z,3.00
2019-03-25T17:57:19.334Z,2.60
2019-03-25T17:59:50.229Z,2.42
2019-03-25T18:02:20.877Z,2.37
2019-03-25T18:04:51.629Z,2.72
2019-03-25T18:07:22.284Z,3.95
2019-03-25T18:09:52.915Z,6.00
2019-03-25T18:12:23.589Z,7.95
2019-03-25T18:14:54.239Z,5.53
2019-03-25T18:17:24.939Z,2.80
2019-03-25T18:19:55.521Z,2.60
2019-03-25T18:22:26.230Z,4.30
2019-03-25T18:24:56.845Z,3.25
2019-03-25T18:27:27.582Z,3.65
2019-03-25T18:29:58.287Z,3.95
2019-03-25T18:32:28.915Z,4.08
2019-03-25T18:34:59.597Z,5.03
2019-03-25T18:37:30.300Z,3.90
2019-03-25T18:40:01.207Z,6.17
2019-03-25T18:42:31.955Z,10.72
2019-03-25T18:45:02.636Z,5.87
2019-03-25T18:47:34.998Z,4.20
2019-03-25T18:50:06.011Z,5.35
2019-03-25T18:52:37.036Z,5.22
2019-03-25T18:55:07.964Z,4.72
2019-03-25T18:57:38.676Z,3.45
2019-03-25T19:00:10.255Z,3.52
2019-03-25T19:02:41.044Z,3.55
2019-03-25T19:05:11.921Z,3.37
2019-03-25T19:07:45.534Z,3.20
2019-03-25T19:10:20.920Z,3.20
2019-03-25T19:12:51.618Z,4.53
2019-03-25T19:15:22.321Z,4.70
2019-03-25T19:17:53.848Z,3.60
2019-03-25T19:20:27.112Z,2.42
2019-03-25T19:22:57.788Z,2.95
2019-03-25T19:25:28.421Z,2.08
2019-03-25T19:28:00.063Z,1.90
2019-03-25T19:30:30.739Z,2.30
2019-03-25T19:33:01.791Z,2.00
2019-03-25T19:35:32.473Z,1.95
2019-03-25T19:38:03.219Z,1.87
2019-03-25T19:40:33.820Z,2.10
2019-03-25T19:43:04.565Z,1.80
2019-03-25T19:45:35.994Z,2.10
2019-03-25T19:48:06.624Z,1.80
2019-03-25T19:50:37.226Z,1.90
2019-03-25T19:53:18.604Z,1.77
2019-03-25T19:55:40.750Z,1.92
2019-03-25T19:58:11.489Z,2.42
2019-03-25T20:00:42.576Z,1.70
2019-03-25T20:03:13.234Z,1.72
2019-03-25T20:05:43.841Z,2.10
2019-03-25T20:08:14.635Z,1.90
2019-03-25T20:10:45.315Z,2.10
2019-03-25T20:13:15.953Z,1.90
2019-03-25T20:15:47.035Z,2.12
2019-03-25T20:18:17.703Z,2.00
2019-03-25T20:20:48.344Z,2.00
2019-03-25T20:23:19.010Z,2.20
2019-03-25T20:25:49.659Z,2.03
2019-03-25T20:28:20.285Z,2.10
2019-03-25T20:30:50.915Z,2.10
2019-03-25T20:33:21.646Z,2.40
2019-03-25T20:35:52.317Z,2.47
2019-03-25T20:38:23.244Z,3.00
2019-03-25T20:40:54.588Z,2.87
2019-03-25T20:43:25.686Z,2.20
2019-03-25T20:45:56.385Z,2.30
2019-03-25T20:48:27.040Z,2.20
2019-03-25T20:50:57.661Z,2.40
2019-03-25T20:53:28.460Z,2.65
2019-03-25T20:55:59.115Z,2.40
2019-03-25T20:58:29.873Z,2.20
2019-03-25T21:01:00.542Z,2.10
2019-03-25T21:03:31.346Z,1.90
2019-03-25T21:06:01.981Z,1.90
2019-03-25T21:08:32.880Z,2.10
2019-03-25T21:11:03.769Z,1.92
2019-03-25T21:13:35.263Z,1.95
2019-03-25T21:16:05.883Z,2.43
2019-03-25T21:18:36.566Z,2.27
2019-03-25T21:21:07.488Z,2.00
2019-03-25T21:23:38.248Z,2.17
2019-03-25T21:26:10.993Z,2.20
2019-03-25T21:28:41.199Z,2.12
2019-03-25T21:31:11.882Z,2.10
2019-03-25T21:33:42.545Z,2.20
2019-03-25T21:36:13.265Z,2.10
2019-03-25T21:38:44.386Z,2.17
2019-03-25T21:41:15.043Z,1.92
2019-03-25T21:43:45.763Z,2.10
2019-03-25T21:46:16.323Z,2.00
2019-03-25T21:48:46.980Z,2.27
2019-03-25T21:51:17.625Z,2.12
2019-03-25T21:53:48.346Z,2.25
2019-03-25T21:56:19.098Z,2.95
2019-03-25T21:58:49.964Z,2.30
2019-03-25T22:01:20.587Z,2.60
2019-03-25T22:03:51.287Z,2.80
2019-03-25T22:06:21.923Z,2.75
2019-03-25T22:08:52.694Z,3.15
2019-03-25T22:11:23.325Z,2.90
2019-03-25T22:13:53.968Z,3.77
2019-03-25T22:16:24.623Z,3.35
2019-03-25T22:18:55.267Z,2.95
2019-03-25T22:21:25.889Z,3.52
2019-03-25T22:23:56.636Z,3.50
2019-03-25T22:26:27.273Z,3.50
2019-03-25T22:28:58.004Z,3.40
2019-03-25T22:31:28.640Z,3.72
2019-03-25T22:33:59.266Z,3.37
2019-03-25T22:36:29.910Z,3.70
2019-03-25T22:39:00.631Z,3.33
2019-03-25T22:41:31.411Z,3.70
2019-03-25T22:44:02.400Z,3.22
2019-03-25T22:46:33.082Z,3.52
2019-03-25T22:49:04.040Z,3.70
2019-03-25T22:51:35.004Z,3.75
2019-03-25T22:54:06.089Z,3.27
2019-03-25T22:56:36.698Z,3.62
2019-03-25T22:59:07.364Z,3.62
2019-03-25T23:01:38.831Z,3.53
2019-03-25T23:04:09.485Z,3.90
2019-03-25T23:06:41.088Z,4.10
2019-03-25T23:09:11.756Z,4.17
2019-03-25T23:11:42.399Z,3.75
2019-03-25T23:14:13.071Z,4.10
2019-03-25T23:16:44.849Z,3.37
2019-03-25T23:19:15.739Z,4.37
2019-03-25T23:21:46.638Z,3.90
2019-03-25T23:24:17.327Z,4.00
2019-03-25T23:26:48.259Z,4.03
2019-03-25T23:29:18.944Z,3.75
2019-03-25T23:31:49.897Z,4.10
2019-03-25T23:34:20.615Z,4.15
2019-03-25T23:36:51.569Z,4.12
2019-03-25T23:39:25.097Z,4.22
2019-03-25T23:41:54.887Z,3.80
2019-03-25T23:44:25.548Z,3.98
2019-03-25T23:46:56.161Z,3.80
2019-03-25T23:49:27.416Z,4.37
2019-03-25T23:51:58.047Z,4.83
2019-03-25T23:54:28.703Z,4.10
2019-03-25T23:56:59.336Z,4.58
2019-03-25T23:59:29.983Z,4.40
